Time;durP1;ratioP1;P1;durP2;ratioP2;P2;SDS_P1;SDS_P2;PMS_P1;PMS_P2;Temp;Humidity;BMP_temperature;BMP_pressure;BME280_temperature;BME280_humidity;BME280_pressure;Samples;Min_cycle;Max_cycle;Signal;HPM_P1;HPM_P2
2023/05/20 00:04:44;;;;;;;3.60;2.75;;;;;;;19.56;57.63;97390.88;10412948;28;20038;-56
2023/05/20 00:10:05;;;;;;;2.90;2.60;;;;;;;19.56;57.80;97390.06;10384833;28;20046;-56
2023/05/20 00:15:24;;;;;;;3.80;2.70;;;;;;;19.55;57.66;97391.19;10375831;28;20049;-56
2023/05/20 00:20:44;;;;;;;2.63;2.42;;;;;;;19.54;57.69;97390.38;10386515;28;20046;-56
2023/05/20 00:26:03;;;;;;;2.92;2.63;;;;;;;19.54;57.67;97395.78;10404211;28;20408;-56
2023/05/20 00:31:23;;;;;;;4.10;2.70;;;;;;;19.53;57.63;97386.06;10415364;28;20460;-56
2023/05/20 00:36:42;;;;;;;3.00;2.70;;;;;;;19.54;57.74;97378.75;10384481;28;20414;-56
2023/05/20 00:42:02;;;;;;;3.17;2.75;;;;;;;19.53;57.68;97377.97;10388200;28;20371;-56
2023/05/20 00:47:28;;;;;;;3.00;2.70;;;;;;;19.51;57.82;97369.38;10395567;28;20403;-56
2023/05/20 00:52:50;;;;;;;3.28;2.80;;;;;;;19.51;57.74;97374.78;10411482;28;20062;-56
2023/05/20 00:58:10;;;;;;;3.15;2.70;;;;;;;19.50;57.62;97361.56;10415222;28;20107;-56
2023/05/20 01:03:29;;;;;;;2.85;2.55;;;;;;;19.49;57.60;97357.28;10431301;28;20049;-56
2023/05/20 01:08:49;;;;;;;2.72;2.53;;;;;;;19.49;57.57;97355.38;10417154;28;20391;-56
2023/05/20 01:14:11;;;;;;;2.97;2.67;;;;;;;19.47;57.66;97352.19;10411813;28;20088;-56
2023/05/20 01:19:37;;;;;;;3.17;2.50;;;;;;;19.47;57.70;97363.00;10413135;28;20056;-56
2023/05/20 01:24:57;;;;;;;2.80;2.60;;;;;;;19.47;57.65;97340.59;10431162;28;20045;-56
2023/05/20 01:30:19;;;;;;;2.97;2.42;;;;;;;19.47;57.70;97343.28;10415963;28;20091;-56
2023/05/20 01:35:40;;;;;;;3.45;2.65;;;;;;;19.44;57.57;97347.41;10393881;28;20045;-56
2023/05/20 01:41:03;;;;;;;4.22;2.63;;;;;;;19.45;57.52;97337.41;10409880;28;20057;-56
2023/05/20 01:46:23;;;;;;;3.17;2.22;;;;;;;19.44;57.45;97333.09;10429681;28;20049;-56
2023/05/20 01:51:42;;;;;;;3.13;2.30;;;;;;;19.43;57.61;97332.31;10410732;28;20085;-56
2023/05/20 01:57:02;;;;;;;2.65;2.45;;;;;;;19.43;57.56;97323.41;10400975;28;20041;-56
2023/05/20 02:02:22;;;;;;;3.10;2.80;;;;;;;19.42;57.48;97328.00;10418930;28;20045;-56
2023/05/20 02:07:41;;;;;;;2.65;2.45;;;;;;;19.42;57.38;97346.13;10429076;28;20037;-56
2023/05/20 02:13:01;;;;;;;2.70;2.50;;;;;;;19.41;57.59;97350.72;10429861;28;20041;-56
2023/05/20 02:18:21;;;;;;;2.63;2.42;;;;;;;19.39;57.41;97339.44;10402090;28;20050;-56
2023/05/20 02:23:41;;;;;;;2.88;2.58;;;;;;;19.39;57.40;97334.03;10414868;28;20049;-56
2023/05/20 02:29:00;;;;;;;2.85;2.45;;;;;;;19.39;57.52;97322.44;10427727;28;20095;-56
2023/05/20 02:34:20;;;;;;;2.92;2.50;;;;;;;19.37;57.49;97325.44;10388691;28;20049;-56
2023/05/20 02:39:40;;;;;;;3.00;2.58;;;;;;;19.37;57.54;97314.63;10405062;28;20052;-56
2023/05/20 02:44:59;;;;;;;2.85;2.50;;;;;;;19.38;57.76;97315.44;10427869;28;20510;-56
2023/05/20 02:50:19;;;;;;;3.28;2.55;;;;;;;19.35;57.61;97314.94;10421366;28;20057;-56
2023/05/20 02:55:39;;;;;;;2.70;2.47;;;;;;;19.35;57.57;97320.34;10419824;28;20038;-56
2023/05/20 03:00:59;;;;;;;2.63;2.42;;;;;;;19.34;57.49;97313.34;10389581;28;20041;-56
2023/05/20 03:06:19;;;;;;;2.72;2.53;;;;;;;19.34;57.45;97321.44;10397914;28;20045;-56
2023/05/20 03:11:38;;;;;;;2.88;2.63;;;;;;;19.33;57.51;97317.16;10386315;28;20430;-56
2023/05/20 03:16:58;;;;;;;3.20;2.80;;;;;;;19.32;57.45;97314.75;10373648;28;20061;-56
2023/05/20 03:22:18;;;;;;;2.65;2.45;;;;;;;19.32;57.38;97317.47;10419037;28;20406;-56
2023/05/20 03:27:38;;;;;;;3.10;2.75;;;;;;;19.31;57.49;97321.28;10391709;28;20054;-56
2023/05/20 03:32:58;;;;;;;2.58;2.33;;;;;;;19.30;57.40;97331.28;10394199;28;20050;-56
2023/05/20 03:38:18;;;;;;;2.53;2.20;;;;;;;19.30;57.44;97327.78;10415295;28;20053;-56
2023/05/20 03:43:38;;;;;;;2.30;2.10;;;;;;;19.29;57.42;97323.50;10391396;28;20046;-56
2023/05/20 03:49:00;;;;;;;2.70;2.40;;;;;;;19.28;57.47;97325.38;10421822;28;20107;-56
2023/05/20 03:54:20;;;;;;;2.72;2.33;;;;;;;19.28;57.41;97325.38;10395518;28;20045;-56
2023/05/20 03:59:43;;;;;;;2.70;2.50;;;;;;;19.28;57.37;97321.88;10411953;28;20084;-56
2023/05/20 04:05:03;;;;;;;3.40;2.78;;;;;;;19.29;57.30;97318.09;10388492;28;20045;-56
2023/05/20 04:10:23;;;;;;;2.80;2.50;;;;;;;19.29;57.33;97316.19;10418881;28;20485;-56
2023/05/20 04:15:44;;;;;;;2.60;2.40;;;;;;;19.33;57.19;97325.25;10416652;28;20042;-56
2023/05/20 04:21:04;;;;;;;2.30;2.10;;;;;;;19.36;57.27;97319.22;10384785;28;20505;-56
2023/05/20 04:26:24;;;;;;;2.83;2.63;;;;;;;19.35;57.39;97322.25;10393528;28;20510;-56
2023/05/20 04:31:45;;;;;;;2.50;2.30;;;;;;;19.32;57.43;97309.34;10392134;28;20049;-56
2023/05/20 04:37:08;;;;;;;2.42;2.22;;;;;;;19.31;57.43;97319.38;10403308;28;20037;-56
2023/05/20 04:42:28;;;;;;;1.95;1.83;;;;;;;19.30;57.63;97325.06;10397819;28;20441;-56
2023/05/20 04:47:49;;;;;;;2.22;2.00;;;;;;;19.30;57.61;97325.06;10416449;28;20037;-55
2023/05/20 04:53:09;;;;;;;1.67;1.58;;;;;;;19.30;58.15;97320.47;10406036;28;20100;-56
2023/05/20 04:58:30;;;;;;;2.20;2.00;;;;;;;19.30;58.40;97320.47;10394020;28;20054;-56
2023/05/20 05:03:50;;;;;;;3.40;2.20;;;;;;;19.29;58.64;97318.88;10393498;28;20053;-56
2023/05/20 05:09:09;;;;;;;2.95;2.00;;;;;;;19.29;58.60;97318.09;10401243;28;20041;-56
2023/05/20 05:14:33;;;;;;;2.10;1.90;;;;;;;19.29;58.65;97316.19;10380380;28;20077;-56
2023/05/20 05:19:53;;;;;;;2.13;2.00;;;;;;;19.28;58.60;97305.69;10416486;28;20398;-56
2023/05/20 05:25:13;;;;;;;2.30;2.10;;;;;;;19.29;58.73;97304.59;10430095;28;20433;-56
2023/05/20 05:30:33;;;;;;;1.83;1.73;;;;;;;19.28;58.77;97306.47;10394256;28;20046;-56
2023/05/20 05:35:55;;;;;;;2.42;2.22;;;;;;;19.28;58.45;97313.78;10415301;28;20099;-56
2023/05/20 05:41:15;;;;;;;2.33;2.13;;;;;;;19.27;58.37;97309.50;10429705;28;20410;-56
2023/05/20 05:46:35;;;;;;;2.30;2.10;;;;;;;19.26;58.28;97316.78;10427431;28;20033;-56
2023/05/20 05:51:55;;;;;;;12.55;9.88;;;;;;;19.24;56.96;97312.81;10418839;28;20485;-56
2023/05/20 05:57:15;;;;;;;16.52;13.38;;;;;;;19.02;52.91;97306.31;10396195;28;20038;-56
2023/05/20 06:02:35;;;;;;;19.48;14.23;;;;;;;18.87;52.28;97328.28;10397279;28;20048;-55
2023/05/20 06:07:55;;;;;;;18.65;15.13;;;;;;;18.76;51.78;97325.03;10428436;28;20045;-55
2023/05/20 06:13:16;;;;;;;16.70;14.82;;;;;;;18.72;51.34;97321.34;10428794;28;20409;-55
2023/05/20 06:18:36;;;;;;;15.88;13.13;;;;;;;18.80;52.71;97327.91;10415252;28;20045;-55
2023/05/20 06:23:58;;;;;;;13.15;10.95;;;;;;;18.90;53.38;97323.09;10427584;28;20044;-55
2023/05/20 06:29:17;;;;;;;12.23;9.82;;;;;;;18.99;53.93;97322.34;10427736;28;20037;-55
2023/05/20 06:34:37;;;;;;;12.98;9.50;;;;;;;19.03;54.12;97313.31;10427285;28;20037;-56
2023/05/20 06:39:57;;;;;;;12.02;9.30;;;;;;;19.07;54.45;97310.78;10387473;28;20046;-56
2023/05/20 06:45:17;;;;;;;12.70;10.43;;;;;;;19.08;54.60;97313.19;10391097;28;20045;-56
2023/05/20 06:50:47;;;;;;;10.60;9.25;;;;;;;19.11;54.55;97311.78;10415071;28;20383;-56
2023/05/20 06:56:07;;;;;;;8.98;8.10;;;;;;;19.13;54.72;97314.97;10427881;28;20045;-55
2023/05/20 07:01:27;;;;;;;10.35;9.35;;;;;;;19.16;54.65;97314.34;10396063;28;20050;-56
2023/05/20 07:06:47;;;;;;;9.45;8.50;;;;;;;19.16;54.52;97295.44;10373166;28;20061;-56
2023/05/20 07:12:07;;;;;;;10.10;9.10;;;;;;;19.17;54.49;97297.84;10390048;28;20042;-56
2023/05/20 07:17:28;;;;;;;8.40;7.50;;;;;;;19.19;54.58;97292.13;10385907;28;20400;-56
2023/05/20 07:22:49;;;;;;;10.55;9.25;;;;;;;19.20;54.52;97296.41;10386789;28;20046;-56
2023/05/20 07:28:21;;;;;;;10.77;9.32;;;;;;;19.22;54.77;97296.91;10396514;28;20046;-57
2023/05/20 07:33:41;;;;;;;10.43;9.40;;;;;;;19.23;54.81;97292.28;10418000;28;20052;-56
2023/05/20 07:39:01;;;;;;;10.18;9.05;;;;;;;19.24;55.04;97277.69;10401310;28;20046;-56
2023/05/20 07:44:22;;;;;;;10.68;8.77;;;;;;;19.26;55.07;97280.88;10385316;28;20041;-56
2023/05/20 07:49:45;;;;;;;11.57;8.60;;;;;;;19.26;54.98;97280.88;10408953;28;20061;-56
2023/05/20 07:55:06;;;;;;;10.65;9.50;;;;;;;19.27;54.92;97279.78;10400543;28;20038;-57
2023/05/20 08:00:26;;;;;;;14.10;9.63;;;;;;;19.29;54.93;97280.28;10400942;28;20096;-56
2023/05/20 08:05:45;;;;;;;10.07;8.65;;;;;;;19.30;55.09;97271.03;10409623;28;20038;-56
2023/05/20 08:11:05;;;;;;;11.23;9.50;;;;;;;19.31;55.14;97268.03;10434207;28;20045;-56
2023/05/20 08:16:25;;;;;;;9.50;6.75;;;;;;;19.32;54.89;97272.31;10419681;28;20445;-57
2023/05/20 08:21:45;;;;;;;10.02;9.10;;;;;;;19.34;54.99;97267.41;10433954;28;20041;-56
2023/05/20 08:27:05;;;;;;;10.23;8.18;;;;;;;19.34;55.04;97253.91;10424434;28;20033;-56
2023/05/20 08:32:25;;;;;;;9.90;8.65;;;;;;;19.37;55.06;97255.19;10428160;28;20045;-57
2023/05/20 08:37:45;;;;;;;10.15;9.13;;;;;;;19.37;54.88;97255.19;10403230;28;20068;-56
2023/05/20 08:43:06;;;;;;;12.52;9.90;;;;;;;19.38;54.86;97245.19;10407978;28;20096;-56
2023/05/20 08:48:26;;;;;;;12.75;9.75;;;;;;;19.40;55.21;97243.75;10403859;28;20050;-55
2023/05/20 08:53:46;;;;;;;15.90;10.90;;;;;;;19.42;55.41;97243.44;10406281;28;20402;-56
2023/05/20 08:59:07;;;;;;;14.43;9.27;;;;;;;19.42;55.93;97240.75;10405055;28;20046;-56
2023/05/20 09:04:27;;;;;;;12.50;9.68;;;;;;;19.44;56.24;97239.31;10427516;28;20049;-56
2023/05/20 09:09:46;;;;;;;12.32;10.10;;;;;;;19.46;57.06;97247.91;10416550;28;20087;-56
2023/05/20 09:15:06;;;;;;;13.93;9.98;;;;;;;19.49;57.34;97243.81;10398973;28;20485;-56
2023/05/20 09:20:28;;;;;;;10.23;9.00;;;;;;;19.50;57.54;97242.69;10431303;28;21498;-56
2023/05/20 09:25:51;;;;;;;15.40;9.02;;;;;;;19.51;57.54;97238.88;10431143;28;20481;-56
2023/05/20 09:31:13;;;;;;;10.52;8.88;;;;;;;19.52;57.43;97235.06;10420491;28;20040;-56
2023/05/20 09:36:34;;;;;;;11.05;8.82;;;;;;;19.52;57.36;97235.88;10393820;28;20049;-56
2023/05/20 09:42:17;;;;;;;13.05;9.00;;;;;;;19.54;57.65;97236.34;10390647;28;20050;-56
2023/05/20 09:47:42;;;;;;;14.52;10.88;;;;;;;19.56;58.47;97236.84;10410776;28;20049;-56
2023/05/20 09:53:03;;;;;;;11.30;8.13;;;;;;;19.59;56.83;97230.00;10402270;28;20060;-56
2023/05/20 09:58:23;;;;;;;10.63;8.25;;;;;;;19.59;57.17;97223.81;10390163;28;20121;-56
2023/05/20 10:03:43;;;;;;;10.15;8.02;;;;;;;19.59;57.13;97218.41;10390001;28;20050;-57
2023/05/20 10:09:21;;;;;;;8.02;6.40;;;;;;;19.59;57.35;97219.19;10404446;28;20100;-57
2023/05/20 10:15:14;;;;;;;12.80;8.17;;;;;;;19.61;58.13;97213.47;10415516;28;20041;-57
2023/05/20 10:20:45;;;;;;;11.45;7.65;;;;;;;19.62;58.13;97206.94;10424322;28;20489;-57
2023/05/20 10:26:06;;;;;;;9.60;6.85;;;;;;;19.65;58.40;97211.72;10392934;28;20042;-56
2023/05/20 10:31:26;;;;;;;10.18;6.72;;;;;;;19.66;57.61;97197.09;10400115;28;20045;-56
2023/05/20 10:37:06;;;;;;;9.90;7.85;;;;;;;19.68;58.03;97200.28;10402596;28;20037;-56
2023/05/20 10:42:29;;;;;;;12.43;7.50;;;;;;;19.67;54.04;97198.69;10428769;28;20038;-56
2023/05/20 10:47:56;;;;;;;11.60;6.68;;;;;;;19.67;54.54;97190.59;10388695;28;20045;-56
2023/05/20 10:53:16;;;;;;;9.30;7.00;;;;;;;19.68;55.54;97175.94;10384039;28;20054;-59
2023/05/20 10:58:38;;;;;;;10.65;7.13;;;;;;;19.70;55.97;97177.25;10428350;28;20046;-56
2023/05/20 11:03:59;;;;;;;13.63;7.20;;;;;;;19.72;56.06;97175.06;10413687;28;20072;-56
2023/05/20 11:09:19;;;;;;;10.68;7.05;;;;;;;19.73;56.15;97165.81;10408244;28;20049;-57
2023/05/20 11:14:39;;;;;;;8.55;7.03;;;;;;;19.76;56.50;97169.81;10390542;28;20402;-56
2023/05/20 11:19:59;;;;;;;9.77;8.27;;;;;;;19.77;56.65;97168.69;10380986;28;20057;-56
2023/05/20 11:25:22;;;;;;;13.02;9.32;;;;;;;19.81;57.13;97160.75;10399899;28;20104;-56
2023/05/20 11:30:42;;;;;;;10.70;8.63;;;;;;;19.81;56.77;97160.75;10412103;28;20041;-56
2023/05/20 11:36:02;;;;;;;11.00;8.32;;;;;;;19.82;57.09;97155.03;10386509;28;20042;-56
2023/05/20 11:41:28;;;;;;;9.43;8.40;;;;;;;19.82;56.49;97154.25;10392212;28;20053;-56
2023/05/20 11:46:47;;;;;;;9.95;8.10;;;;;;;19.78;56.64;97148.66;10395074;28;20060;-56
2023/05/20 11:52:09;;;;;;;10.73;8.35;;;;;;;19.79;57.12;97144.84;10415470;28;20493;-56
2023/05/20 11:57:29;;;;;;;10.27;8.90;;;;;;;19.79;57.38;97136.72;10406212;28;20044;-56
2023/05/20 12:02:49;;;;;;;11.95;9.13;;;;;;;19.81;58.51;97147.22;10402297;28;20053;-56
2023/05/20 12:08:09;;;;;;;10.93;9.43;;;;;;;19.80;58.36;97130.22;10388821;28;20049;-56
2023/05/20 12:13:28;;;;;;;13.20;10.20;;;;;;;19.79;57.96;97128.63;10426149;28;20045;-56
2023/05/20 12:18:50;;;;;;;13.52;11.13;;;;;;;19.79;58.00;97125.91;10426483;28;20037;-56
2023/05/20 12:24:10;;;;;;;11.35;10.15;;;;;;;19.82;58.59;97128.00;10390735;28;20049;-57
2023/05/20 12:29:29;;;;;;;14.25;11.10;;;;;;;19.84;58.65;97114.94;10412029;28;20046;-56
2023/05/20 12:34:48;;;;;;;13.88;10.15;;;;;;;19.84;58.88;97112.25;10413810;28;20050;-56
2023/05/20 12:40:10;;;;;;;16.80;9.77;;;;;;;19.83;58.50;97109.84;10388147;28;20045;-56
2023/05/20 12:45:30;;;;;;;12.93;9.68;;;;;;;19.79;58.94;97109.69;10390965;28;20204;-56
2023/05/20 12:50:49;;;;;;;13.48;9.60;;;;;;;19.81;58.85;97101.25;10403680;28;20053;-57
2023/05/20 12:56:08;;;;;;;14.38;10.00;;;;;;;19.84;58.60;97101.44;10412051;28;20048;-57
2023/05/20 13:01:28;;;;;;;11.90;9.50;;;;;;;19.85;58.20;97103.00;10432403;28;20041;-57
2023/05/20 13:06:47;;;;;;;27.83;11.45;;;;;;;19.83;58.05;97101.75;10432326;28;20406;-56
2023/05/20 13:12:07;;;;;;;10.75;8.27;;;;;;;19.83;56.86;97094.41;10407690;28;20115;-57
2023/05/20 13:17:27;;;;;;;9.80;7.18;;;;;;;19.84;53.99;97089.81;10428612;28;20555;-57
2023/05/20 13:22:46;;;;;;;9.80;7.30;;;;;;;19.82;54.88;97089.34;10423358;28;20040;-57
2023/05/20 13:28:06;;;;;;;13.05;7.50;;;;;;;19.82;54.54;97078.53;10431293;28;20038;-56
2023/05/20 13:33:26;;;;;;;8.55;6.70;;;;;;;19.82;54.04;97083.94;10428798;28;20050;-56
2023/05/20 13:38:45;;;;;;;6.53;5.93;;;;;;;19.84;54.88;97079.00;10404658;28;20050;-56
2023/05/20 13:44:04;;;;;;;16.05;8.05;;;;;;;19.84;55.18;97074.41;10422978;28;20041;-56
2023/05/20 13:49:24;;;;;;;11.02;8.10;;;;;;;19.88;56.17;97079.97;10417342;28;20135;-56
2023/05/20 13:54:46;;;;;;;14.02;8.38;;;;;;;19.88;56.41;97069.16;10409346;28;20045;-57
2023/05/20 14:00:07;;;;;;;13.65;7.85;;;;;;;19.88;56.82;97066.44;10417091;28;20547;-57
2023/05/20 14:05:28;;;;;;;10.30;7.95;;;;;;;19.90;57.00;97065.00;10400849;28;20049;-57
2023/05/20 14:10:47;;;;;;;9.52;7.50;;;;;;;19.91;56.89;97052.28;10389688;28;20050;-56
2023/05/20 14:16:07;;;;;;;10.40;6.93;;;;;;;19.91;56.26;97052.28;10379259;28;20054;-56
2023/05/20 14:21:26;;;;;;;7.95;7.00;;;;;;;19.93;54.90;97052.75;10400323;28;20038;-57
2023/05/20 14:26:46;;;;;;;10.43;6.95;;;;;;;19.92;54.22;97043.84;10429693;28;20037;-56
2023/05/20 14:32:05;;;;;;;11.63;7.00;;;;;;;19.93;53.81;97050.84;10397409;28;20108;-56
2023/05/20 14:37:26;;;;;;;9.00;6.95;;;;;;;19.94;53.20;97052.44;10428688;28;20045;-56
2023/05/20 14:42:46;;;;;;;9.95;6.32;;;;;;;19.93;52.94;97040.03;10415063;28;20111;-56
2023/05/20 14:48:06;;;;;;;10.20;6.82;;;;;;;19.92;52.03;97038.44;10428093;28;20053;-56
2023/05/20 14:53:25;;;;;;;12.43;6.88;;;;;;;19.93;51.76;97039.22;10417686;28;20046;-57
2023/05/20 14:58:45;;;;;;;8.10;7.30;;;;;;;19.94;51.88;97038.91;10403423;28;20049;-56
2023/05/20 15:04:04;;;;;;;10.65;7.20;;;;;;;19.97;52.23;97039.38;10401793;28;20402;-57
2023/05/20 15:09:24;;;;;;;13.35;7.15;;;;;;;19.99;52.77;97031.75;10427634;28;20049;-58
2023/05/20 15:14:44;;;;;;;12.23;6.93;;;;;;;19.99;52.69;97032.53;10392571;28;20042;-58
2023/05/20 15:20:04;;;;;;;14.00;7.72;;;;;;;20.01;52.38;97034.91;10405793;28;20049;-60
2023/05/20 15:25:23;;;;;;;12.48;6.53;;;;;;;19.95;52.64;97024.28;10403466;28;20139;-62
2023/05/20 15:30:43;;;;;;;10.40;7.10;;;;;;;19.92;52.61;97016.81;10416996;28;20042;-59
2023/05/20 15:36:02;;;;;;;8.13;6.53;;;;;;;19.90;52.49;97008.22;10416198;28;20088;-59
2023/05/20 15:41:22;;;;;;;10.00;7.30;;;;;;;19.89;52.58;97012.03;10419564;28;20042;-56
2023/05/20 15:46:42;;;;;;;10.10;7.13;;;;;;;19.89;52.79;97006.63;10410048;28;20406;-56
2023/05/20 15:52:02;;;;;;;8.70;6.82;;;;;;;19.88;52.64;97005.03;10382320;28;20045;-56
2023/05/20 15:57:21;;;;;;;8.70;6.90;;;;;;;19.88;52.15;97010.44;10407136;28;20513;-56
2023/05/20 16:02:42;;;;;;;7.75;6.88;;;;;;;19.87;52.02;97000.75;10403428;28;20042;-58
2023/05/20 16:08:01;;;;;;;9.90;7.18;;;;;;;19.87;52.14;96989.13;10372708;28;20049;-58
2023/05/20 16:13:21;;;;;;;8.07;7.15;;;;;;;19.85;52.24;96983.25;10404854;28;20046;-55
2023/05/20 16:18:41;;;;;;;9.27;7.03;;;;;;;19.85;52.44;96984.03;10422518;28;20068;-57
2023/05/20 16:24:00;;;;;;;12.27;6.80;;;;;;;19.85;52.72;96978.63;10402017;28;20045;-56
2023/05/20 16:29:20;;;;;;;9.23;6.85;;;;;;;19.83;52.61;96983.56;10422292;28;20099;-56
2023/05/20 16:34:40;;;;;;;11.60;7.15;;;;;;;19.83;52.19;96975.47;10431112;28;20033;-56
2023/05/20 16:39:59;;;;;;;14.05;7.72;;;;;;;19.80;52.07;96975.31;10433207;28;20107;-57
2023/05/20 16:45:19;;;;;;;7.95;6.75;;;;;;;19.78;51.76;96978.34;10406906;28;20046;-56
2023/05/20 16:50:38;;;;;;;7.80;6.78;;;;;;;19.79;51.85;96973.75;10397559;28;20087;-57
2023/05/20 16:55:58;;;;;;;8.80;6.53;;;;;;;19.78;51.91;96977.53;10395456;28;20038;-57
2023/05/20 17:01:17;;;;;;;7.90;7.10;;;;;;;19.77;52.00;96982.16;10425797;28;20056;-55
2023/05/20 17:06:38;;;;;;;7.72;6.93;;;;;;;19.77;51.95;96987.56;10406938;28;20152;-57
2023/05/20 17:11:58;;;;;;;9.02;7.15;;;;;;;19.77;52.01;96992.19;10417487;28;20050;-57
2023/05/20 17:17:17;;;;;;;9.18;7.07;;;;;;;19.75;52.07;96990.59;10425042;28;20060;-60
2023/05/20 17:22:37;;;;;;;9.75;7.00;;;;;;;19.76;52.08;96994.09;10431681;28;20405;-57
2023/05/20 17:27:56;;;;;;;11.00;7.38;;;;;;;19.76;52.44;96999.50;10431046;28;20049;-61
2023/05/20 17:33:15;;;;;;;9.43;7.00;;;;;;;19.77;53.05;97005.69;10415413;28;20110;-57
2023/05/20 17:38:35;;;;;;;10.27;7.75;;;;;;;19.78;53.50;97004.56;10406661;28;20042;-56
2023/05/20 17:43:55;;;;;;;7.70;6.72;;;;;;;19.79;53.72;97009.66;10406656;28;20046;-57
2023/05/20 17:49:15;;;;;;;7.13;6.43;;;;;;;19.80;53.96;97013.97;10376987;28;20062;-59
2023/05/20 17:54:35;;;;;;;8.23;6.60;;;;;;;19.79;54.29;97006.97;10380424;28;20046;-60
2023/05/20 17:59:54;;;;;;;7.43;6.60;;;;;;;19.80;54.40;97016.69;10419041;28;20050;-58
2023/05/20 18:05:15;;;;;;;7.40;6.05;;;;;;;19.79;54.54;97020.47;10407083;28;20493;-57
2023/05/20 18:10:35;;;;;;;10.43;6.88;;;;;;;19.79;54.53;97034.00;10429426;28;20044;-57
2023/05/20 18:15:55;;;;;;;7.25;6.10;;;;;;;19.78;54.52;97028.91;10410103;28;20100;-62
2023/05/20 18:21:14;;;;;;;8.27;6.90;;;;;;;19.74;53.64;97037.66;10406787;28;20041;-61
2023/05/20 18:26:34;;;;;;;7.90;7.03;;;;;;;19.73;54.02;97037.97;10415840;28;20061;-60
2023/05/20 18:31:54;;;;;;;8.85;6.93;;;;;;;19.73;54.18;97054.19;10409760;28;20049;-59
2023/05/20 18:37:13;;;;;;;8.55;7.05;;;;;;;19.71;54.34;97037.47;10427679;28;20049;-58
2023/05/20 18:42:33;;;;;;;9.25;7.07;;;;;;;19.70;54.48;97046.72;10407968;28;20044;-57
2023/05/20 18:47:53;;;;;;;10.23;6.57;;;;;;;19.71;54.84;97051.00;10414531;28;20406;-60
2023/05/20 18:53:12;;;;;;;7.97;6.38;;;;;;;19.69;54.77;97045.91;10377012;28;20046;-57
2023/05/20 18:58:32;;;;;;;7.82;6.47;;;;;;;19.68;54.79;97051.63;10402800;28;20050;-58
2023/05/20 19:03:52;;;;;;;9.20;6.15;;;;;;;19.68;54.89;97055.13;10414819;28;20037;-58
2023/05/20 19:09:11;;;;;;;8.43;6.50;;;;;;;19.66;54.99;97060.06;10413720;28;20045;-59
2023/05/20 19:14:30;;;;;;;8.63;7.10;;;;;;;19.66;54.86;97056.53;10390182;28;20037;-57
2023/05/20 19:19:50;;;;;;;9.77;6.22;;;;;;;19.66;54.98;97065.47;10398593;28;20119;-57
2023/05/20 19:25:10;;;;;;;7.95;6.60;;;;;;;19.66;55.19;97081.69;10387096;28;20495;-57
2023/05/20 19:30:29;;;;;;;7.95;6.15;;;;;;;19.68;55.21;97089.44;10389680;28;20041;-58
2023/05/20 19:35:50;;;;;;;7.00;6.30;;;;;;;19.67;55.48;97096.00;10389326;28;20057;-57
2023/05/20 19:41:11;;;;;;;8.70;6.38;;;;;;;19.65;55.20;97099.00;10386416;28;20057;-57
2023/05/20 19:46:30;;;;;;;4.93;2.78;;;;;;;19.67;55.93;97104.88;10389541;28;20048;-58
2023/05/20 19:51:50;;;;;;;6.72;5.13;;;;;;;19.69;56.02;97108.06;10412995;28;20050;-56
2023/05/20 19:57:10;;;;;;;9.55;5.95;;;;;;;19.71;56.09;97105.06;10426708;28;20046;-57
2023/05/20 20:02:29;;;;;;;6.85;5.90;;;;;;;19.73;56.22;97110.97;10422998;28;20054;-57
2023/05/20 20:07:49;;;;;;;9.23;6.18;;;;;;;19.72;56.29;97109.38;10413311;28;20045;-57
2023/05/20 20:13:09;;;;;;;6.50;5.82;;;;;;;19.74;56.29;97099.84;10400524;28;20379;-57
2023/05/20 20:18:28;;;;;;;7.55;6.32;;;;;;;19.74;56.37;97101.75;10434302;28;20502;-56
2023/05/20 20:23:48;;;;;;;6.70;6.03;;;;;;;19.74;56.37;97101.75;10411298;28;20048;-56
2023/05/20 20:29:07;;;;;;;8.82;5.50;;;;;;;19.73;56.34;97114.44;10434050;28;20045;-56
2023/05/20 20:34:26;;;;;;;7.13;5.78;;;;;;;19.74;56.42;97105.25;10417008;28;20049;-57
2023/05/20 20:39:47;;;;;;;6.68;5.97;;;;;;;19.74;56.41;97097.13;10393300;28;20045;-57
2023/05/20 20:45:07;;;;;;;7.05;5.70;;;;;;;19.75;56.46;97106.03;10412147;28;20049;-57
2023/05/20 20:50:27;;;;;;;6.68;5.40;;;;;;;19.74;56.44;97105.25;10416533;28;20077;-58
2023/05/20 20:55:47;;;;;;;5.88;5.32;;;;;;;19.73;56.37;97108.25;10408396;28;20092;-58
2023/05/20 21:01:09;;;;;;;5.75;4.65;;;;;;;19.72;56.21;97093.97;10392421;28;20499;-57
2023/05/20 21:06:29;;;;;;;6.25;4.88;;;;;;;19.71;56.23;97097.75;10414418;28;20444;-58
2023/05/20 21:11:49;;;;;;;7.60;5.20;;;;;;;19.71;56.08;97094.25;10431993;28;20037;-57
2023/05/20 21:17:08;;;;;;;5.85;5.28;;;;;;;19.72;55.93;97103.97;10426960;28;20505;-57
2023/05/20 21:22:28;;;;;;;5.10;4.60;;;;;;;19.70;56.02;97089.97;10392711;28;20053;-57
2023/05/20 21:27:47;;;;;;;5.68;5.05;;;;;;;19.69;56.06;97102.66;10407958;28;20053;-57
2023/05/20 21:33:06;;;;;;;5.05;4.55;;;;;;;19.70;56.02;97098.06;10430311;28;20501;-57
2023/05/20 21:38:26;;;;;;;4.90;4.40;;;;;;;19.69;56.02;97110.75;10402467;28;20057;-57
2023/05/20 21:43:45;;;;;;;6.03;4.93;;;;;;;19.68;55.91;97098.38;10419673;28;20041;-57
2023/05/20 21:49:05;;;;;;;5.20;4.53;;;;;;;19.68;56.04;97101.09;10415940;28;20053;-57
2023/05/20 21:54:24;;;;;;;5.10;4.60;;;;;;;19.68;55.95;97103.78;10425487;28;20439;-58
2023/05/20 21:59:44;;;;;;;6.00;5.40;;;;;;;19.68;55.88;97105.66;10429136;28;20049;-58
2023/05/20 22:05:03;;;;;;;5.80;5.20;;;;;;;19.67;55.90;97098.69;10430514;28;20064;-57
2023/05/20 22:10:23;;;;;;;4.97;4.47;;;;;;;19.67;55.89;97098.69;10413922;28;20037;-57
2023/05/20 22:15:43;;;;;;;5.00;4.50;;;;;;;19.67;55.86;97110.28;10411752;28;20041;-57
2023/05/20 22:21:02;;;;;;;5.22;4.72;;;;;;;19.67;55.90;97098.69;10399531;28;20513;-57
2023/05/20 22:26:22;;;;;;;4.65;4.25;;;;;;;19.67;55.99;97099.47;10429053;28;20049;-58
2023/05/20 22:31:41;;;;;;;5.22;4.72;;;;;;;19.66;55.89;97092.50;10428285;28;20406;-57
2023/05/20 22:37:01;;;;;;;6.45;4.85;;;;;;;19.65;55.92;97080.09;10428858;28;20037;-57
2023/05/20 22:42:21;;;;;;;5.25;4.75;;;;;;;19.65;55.90;97077.38;10394545;28;20522;-57
2023/05/20 22:47:41;;;;;;;5.68;4.85;;;;;;;19.65;55.82;97077.38;10408983;28;20405;-57
2023/05/20 22:53:01;;;;;;;5.75;5.13;;;;;;;19.65;55.87;97073.88;10414887;28;20057;-58
2023/05/20 22:58:21;;;;;;;7.25;4.78;;;;;;;19.63;55.82;97068.78;10414216;28;20563;-58
2023/05/20 23:03:42;;;;;;;5.57;4.85;;;;;;;19.63;55.79;97062.59;10393891;28;20045;-57
2023/05/20 23:09:03;;;;;;;5.22;4.72;;;;;;;19.64;55.77;97053.38;10390305;28;20038;-58
2023/05/20 23:14:22;;;;;;;5.40;4.70;;;;;;;19.63;55.84;97051.78;10376676;28;20061;-57
2023/05/20 23:19:42;;;;;;;5.65;4.70;;;;;;;19.62;55.80;97050.19;10425733;28;20053;-57
2023/05/20 23:25:02;;;;;;;4.88;4.38;;;;;;;19.62;55.81;97039.38;10387197;28;20045;-57
2023/05/20 23:30:21;;;;;;;5.45;4.88;;;;;;;19.62;55.71;97039.38;10389841;28;20038;-58
2023/05/20 23:35:42;;;;;;;6.63;4.70;;;;;;;19.61;56.12;97033.19;10412514;28;20131;-58
2023/05/20 23:41:02;;;;;;;4.95;4.45;;;;;;;19.61;55.78;97037.81;10413835;28;20050;-58
2023/05/20 23:46:22;;;;;;;5.10;4.60;;;;;;;19.60;55.82;97026.22;10389723;28;20053;-57
2023/05/20 23:51:41;;;;;;;5.40;4.60;;;;;;;19.61;55.74;97035.09;10417171;28;20058;-57
2023/05/20 23:57:00;;;;;;;4.95;4.55;;;;;;;19.60;55.77;97033.50;10425954;28;20042;-58
